Balaou — FAB9053 — position and weather

sailwx.info

Track history (hours):
 
Tides and Currents Weather Stations Pressure Air Temp Water Temp Dewpoint Dewpoint Depression Visibility Wind Speed Wind Dir Waves Ship Positions

Balaou

Last reported at 2018-Jun-21 01:13 UTC. Time now 2018-Jun-22 07:40 UTC.
Position N 47°33' W 002°54'.

Length 10 m.

Type: Pleasure craft. MMSI: 227250830.

Date/timePositionNaut miles runAvg speedWind from/ knotsBaromVisibWave heightAir tempDewpointWater temp
2018-Jun-21 01:13N 47°33' W 002°54'0 0.0
2018-Jun-21 00:43N 47°33' W 002°54'0 0.0
2018-Jun-20 20:54N 47°33' W 002°54'0 0.0
2018-Jun-20 20:30N 47°33' W 002°54'0 0.0
2018-Jun-20 19:57N 47°33' W 002°54'0 0.0
2018-Jun-20 19:27N 47°33' W 002°54'0 0.0
2018-Jun-20 18:18N 47°33' W 002°54'0 0.0
2018-Jun-20 18:00N 47°33' W 002°54'2 4.9
2018-Jun-20 17:30N 47°30' W 002°55'4 8.5
2018-Jun-20 17:00N 47°26' W 002°55'3 6.3
2018-Jun-20 16:30N 47°23' W 002°57'0 0.0
2018-Jun-20 12:25N 47°23' W 002°57'0 0.0
2018-Jun-20 11:59N 47°23' W 002°57'4 7.5
2018-Jun-20 11:30N 47°23' W 002°52'4 8.4
2018-Jun-20 10:59N 47°24' W 002°45'6 8.0
2018-Jun-20 10:11N 47°24' W 002°36'0 0.0
2018-Jun-19 09:46N 47°24' W 002°36'4 8.1
2018-Jun-19 09:17N 47°25' W 002°41'2 7.4
2018-Jun-19 08:58N 47°25' W 002°45'4 8.0
2018-Jun-19 08:31N 47°27' W 002°50'4 7.8
2018-Jun-19 08:00N 47°30' W 002°53'  
Track history (hours):
 
Tides and Currents Weather Stations Pressure Air Temp Water Temp Dewpoint Dewpoint Depression Visibility Wind Speed Wind Dir Waves Ship Positions

Balaou

Last reported at 2018-Jun-21 01:13 UTC. Time now 2018-Jun-22 07:40 UTC.
Position N 47°33' W 002°54'.

Length 10 m.

Type: Pleasure craft. MMSI: 227250830.

Date/timePositionNaut miles runAvg speedWind from/ knotsBaromVisibWave heightAir tempDewpointWater temp
2018-Jun-21 01:13N 47°33' W 002°54'0 0.0
2018-Jun-21 00:43N 47°33' W 002°54'0 0.0
2018-Jun-20 20:54N 47°33' W 002°54'0 0.0
2018-Jun-20 20:30N 47°33' W 002°54'0 0.0
2018-Jun-20 19:57N 47°33' W 002°54'0 0.0
2018-Jun-20 19:27N 47°33' W 002°54'0 0.0
2018-Jun-20 18:18N 47°33' W 002°54'0 0.0
2018-Jun-20 18:00N 47°33' W 002°54'2 4.9
2018-Jun-20 17:30N 47°30' W 002°55'4 8.5
2018-Jun-20 17:00N 47°26' W 002°55'3 6.3
2018-Jun-20 16:30N 47°23' W 002°57'0 0.0
2018-Jun-20 12:25N 47°23' W 002°57'0 0.0
2018-Jun-20 11:59N 47°23' W 002°57'4 7.5
2018-Jun-20 11:30N 47°23' W 002°52'4 8.4
2018-Jun-20 10:59N 47°24' W 002°45'6 8.0
2018-Jun-20 10:11N 47°24' W 002°36'0 0.0
2018-Jun-19 09:46N 47°24' W 002°36'4 8.1
2018-Jun-19 09:17N 47°25' W 002°41'2 7.4
2018-Jun-19 08:58N 47°25' W 002°45'4 8.0
2018-Jun-19 08:31N 47°27' W 002°50'4 7.8
2018-Jun-19 08:00N 47°30' W 002°53'  

Dump ship's entire track history